sensor_id;sensor_type;location;lat;lon;timestamp;P1;durP1;ratioP1;P2;durP2;ratioP2
30010;SDS011;16851;53.564;8.112;2022-12-07T00:03:34;24.93;;;6.10;;
30010;SDS011;16851;53.564;8.112;2022-12-07T00:08:40;13.17;;;5.00;;
30010;SDS011;16851;53.564;8.112;2022-12-07T00:13:44;10.20;;;2.27;;
30010;SDS011;16851;53.564;8.112;2022-12-07T00:18:56;5.33;;;1.20;;
30010;SDS011;16851;53.564;8.112;2022-12-07T00:24:01;6.40;;;1.40;;
30010;SDS011;16851;53.564;8.112;2022-12-07T00:29:09;6.43;;;1.47;;
30010;SDS011;16851;53.564;8.112;2022-12-07T00:34:18;5.93;;;1.17;;
30010;SDS011;16851;53.564;8.112;2022-12-07T00:39:21;1.83;;;0.83;;
30010;SDS011;16851;53.564;8.112;2022-12-07T00:44:23;2.87;;;1.20;;
30010;SDS011;16851;53.564;8.112;2022-12-07T00:49:27;3.47;;;1.10;;
30010;SDS011;16851;53.564;8.112;2022-12-07T00:54:29;5.40;;;1.27;;
30010;SDS011;16851;53.564;8.112;2022-12-07T00:59:35;4.40;;;1.23;;
30010;SDS011;16851;53.564;8.112;2022-12-07T01:04:39;4.57;;;1.13;;
30010;SDS011;16851;53.564;8.112;2022-12-07T01:09:41;5.27;;;1.17;;
30010;SDS011;16851;53.564;8.112;2022-12-07T01:14:46;4.77;;;1.33;;
30010;SDS011;16851;53.564;8.112;2022-12-07T01:19:48;2.93;;;1.20;;
30010;SDS011;16851;53.564;8.112;2022-12-07T01:24:50;6.17;;;1.70;;
30010;SDS011;16851;53.564;8.112;2022-12-07T01:29:55;9.60;;;1.27;;
30010;SDS011;16851;53.564;8.112;2022-12-07T01:34:57;9.70;;;1.70;;
30010;SDS011;16851;53.564;8.112;2022-12-07T01:40:01;5.73;;;1.40;;
30010;SDS011;16851;53.564;8.112;2022-12-07T01:50:38;7.60;;;1.30;;
30010;SDS011;16851;53.564;8.112;2022-12-07T01:55:47;4.00;;;1.07;;
30010;SDS011;16851;53.564;8.112;2022-12-07T02:00:53;6.43;;;1.50;;
30010;SDS011;16851;53.564;8.112;2022-12-07T02:05:55;5.10;;;1.40;;
30010;SDS011;16851;53.564;8.112;2022-12-07T02:11:01;7.13;;;1.23;;
30010;SDS011;16851;53.564;8.112;2022-12-07T02:16:20;11.00;;;1.60;;
30010;SDS011;16851;53.564;8.112;2022-12-07T02:21:44;6.97;;;1.20;;
30010;SDS011;16851;53.564;8.112;2022-12-07T02:27:02;4.00;;;1.30;;
30010;SDS011;16851;53.564;8.112;2022-12-07T02:37:25;9.87;;;1.50;;
30010;SDS011;16851;53.564;8.112;2022-12-07T02:42:43;9.70;;;1.83;;
30010;SDS011;16851;53.564;8.112;2022-12-07T02:47:51;7.93;;;1.43;;
30010;SDS011;16851;53.564;8.112;2022-12-07T02:52:56;5.97;;;1.67;;
30010;SDS011;16851;53.564;8.112;2022-12-07T02:58:22;10.97;;;1.80;;
30010;SDS011;16851;53.564;8.112;2022-12-07T03:03:38;9.20;;;1.37;;
30010;SDS011;16851;53.564;8.112;2022-12-07T03:13:59;6.07;;;1.27;;
30010;SDS011;16851;53.564;8.112;2022-12-07T03:19:13;3.63;;;0.90;;
30010;SDS011;16851;53.564;8.112;2022-12-07T03:24:22;5.97;;;1.17;;
30010;SDS011;16851;53.564;8.112;2022-12-07T03:29:32;8.30;;;1.93;;
30010;SDS011;16851;53.564;8.112;2022-12-07T03:35:01;11.23;;;1.40;;
30010;SDS011;16851;53.564;8.112;2022-12-07T03:45:11;7.97;;;1.43;;
30010;SDS011;16851;53.564;8.112;2022-12-07T03:50:28;14.40;;;2.20;;
30010;SDS011;16851;53.564;8.112;2022-12-07T03:55:34;6.03;;;1.20;;
30010;SDS011;16851;53.564;8.112;2022-12-07T04:00:41;3.03;;;0.80;;
30010;SDS011;16851;53.564;8.112;2022-12-07T04:05:48;8.33;;;0.90;;
30010;SDS011;16851;53.564;8.112;2022-12-07T04:10:52;8.57;;;0.87;;
30010;SDS011;16851;53.564;8.112;2022-12-07T04:15:59;7.73;;;1.00;;
30010;SDS011;16851;53.564;8.112;2022-12-07T04:21:03;3.13;;;0.67;;
30010;SDS011;16851;53.564;8.112;2022-12-07T04:26:05;5.60;;;1.00;;
30010;SDS011;16851;53.564;8.112;2022-12-07T04:31:06;3.37;;;0.80;;
30010;SDS011;16851;53.564;8.112;2022-12-07T04:36:14;10.27;;;1.60;;
30010;SDS011;16851;53.564;8.112;2022-12-07T04:41:17;11.73;;;1.70;;
30010;SDS011;16851;53.564;8.112;2022-12-07T04:46:28;10.60;;;1.40;;
30010;SDS011;16851;53.564;8.112;2022-12-07T04:51:36;7.23;;;1.20;;
30010;SDS011;16851;53.564;8.112;2022-12-07T04:56:39;17.53;;;1.80;;
30010;SDS011;16851;53.564;8.112;2022-12-07T05:01:42;7.43;;;1.40;;
30010;SDS011;16851;53.564;8.112;2022-12-07T05:06:44;9.33;;;1.30;;
30010;SDS011;16851;53.564;8.112;2022-12-07T05:11:48;10.97;;;1.57;;
30010;SDS011;16851;53.564;8.112;2022-12-07T05:16:59;9.53;;;1.20;;
30010;SDS011;16851;53.564;8.112;2022-12-07T05:22:04;8.57;;;1.30;;
30010;SDS011;16851;53.564;8.112;2022-12-07T05:27:06;5.67;;;1.50;;
30010;SDS011;16851;53.564;8.112;2022-12-07T05:32:13;15.53;;;1.73;;
30010;SDS011;16851;53.564;8.112;2022-12-07T05:37:16;9.80;;;1.60;;
30010;SDS011;16851;53.564;8.112;2022-12-07T05:42:18;8.93;;;1.17;;
30010;SDS011;16851;53.564;8.112;2022-12-07T05:47:20;5.83;;;1.33;;
30010;SDS011;16851;53.564;8.112;2022-12-07T05:52:24;7.00;;;1.67;;
30010;SDS011;16851;53.564;8.112;2022-12-07T05:57:28;10.73;;;2.10;;
30010;SDS011;16851;53.564;8.112;2022-12-07T06:02:33;9.47;;;1.40;;
30010;SDS011;16851;53.564;8.112;2022-12-07T06:07:35;9.80;;;1.50;;
30010;SDS011;16851;53.564;8.112;2022-12-07T06:12:39;15.00;;;1.60;;
30010;SDS011;16851;53.564;8.112;2022-12-07T06:17:43;13.60;;;2.00;;
30010;SDS011;16851;53.564;8.112;2022-12-07T06:22:47;12.23;;;1.93;;
30010;SDS011;16851;53.564;8.112;2022-12-07T06:27:49;20.47;;;2.10;;
30010;SDS011;16851;53.564;8.112;2022-12-07T06:32:54;21.70;;;2.20;;
30010;SDS011;16851;53.564;8.112;2022-12-07T06:37:56;11.50;;;1.70;;
30010;SDS011;16851;53.564;8.112;2022-12-07T06:42:58;17.40;;;2.50;;
30010;SDS011;16851;53.564;8.112;2022-12-07T06:48:04;9.97;;;1.90;;
30010;SDS011;16851;53.564;8.112;2022-12-07T06:53:12;17.93;;;2.00;;
30010;SDS011;16851;53.564;8.112;2022-12-07T06:58:16;15.77;;;2.03;;
30010;SDS011;16851;53.564;8.112;2022-12-07T07:03:18;16.00;;;2.13;;
30010;SDS011;16851;53.564;8.112;2022-12-07T07:08:20;13.47;;;2.03;;
30010;SDS011;16851;53.564;8.112;2022-12-07T07:13:24;12.80;;;2.23;;
30010;SDS011;16851;53.564;8.112;2022-12-07T07:18:27;10.07;;;2.30;;
30010;SDS011;16851;53.564;8.112;2022-12-07T07:23:29;13.17;;;2.00;;
30010;SDS011;16851;53.564;8.112;2022-12-07T07:28:31;19.43;;;3.30;;
30010;SDS011;16851;53.564;8.112;2022-12-07T07:33:33;18.60;;;4.07;;
30010;SDS011;16851;53.564;8.112;2022-12-07T07:38:37;19.50;;;4.53;;
30010;SDS011;16851;53.564;8.112;2022-12-07T07:43:39;21.67;;;3.40;;
30010;SDS011;16851;53.564;8.112;2022-12-07T07:48:43;13.50;;;2.40;;
30010;SDS011;16851;53.564;8.112;2022-12-07T07:53:47;13.77;;;2.80;;
30010;SDS011;16851;53.564;8.112;2022-12-07T07:58:52;11.10;;;1.80;;
30010;SDS011;16851;53.564;8.112;2022-12-07T08:03:58;6.20;;;1.17;;
30010;SDS011;16851;53.564;8.112;2022-12-07T08:09:00;11.40;;;1.20;;
30010;SDS011;16851;53.564;8.112;2022-12-07T08:14:06;5.97;;;1.50;;
30010;SDS011;16851;53.564;8.112;2022-12-07T08:19:09;7.97;;;1.27;;
30010;SDS011;16851;53.564;8.112;2022-12-07T08:24:13;8.67;;;1.50;;
30010;SDS011;16851;53.564;8.112;2022-12-07T08:29:18;7.50;;;1.63;;
30010;SDS011;16851;53.564;8.112;2022-12-07T08:34:23;8.70;;;1.50;;
30010;SDS011;16851;53.564;8.112;2022-12-07T08:39:27;9.03;;;1.43;;
30010;SDS011;16851;53.564;8.112;2022-12-07T08:44:35;5.73;;;1.30;;
30010;SDS011;16851;53.564;8.112;2022-12-07T08:49:45;9.90;;;1.60;;
30010;SDS011;16851;53.564;8.112;2022-12-07T08:54:50;9.47;;;1.93;;
30010;SDS011;16851;53.564;8.112;2022-12-07T08:59:54;8.37;;;1.73;;
30010;SDS011;16851;53.564;8.112;2022-12-07T09:04:59;10.20;;;1.73;;
30010;SDS011;16851;53.564;8.112;2022-12-07T09:10:05;7.83;;;1.57;;
30010;SDS011;16851;53.564;8.112;2022-12-07T09:15:07;9.67;;;2.07;;
30010;SDS011;16851;53.564;8.112;2022-12-07T09:20:13;15.43;;;2.87;;
30010;SDS011;16851;53.564;8.112;2022-12-07T09:25:17;13.00;;;1.80;;
30010;SDS011;16851;53.564;8.112;2022-12-07T09:30:22;14.80;;;2.23;;
30010;SDS011;16851;53.564;8.112;2022-12-07T09:35:24;5.90;;;1.80;;
30010;SDS011;16851;53.564;8.112;2022-12-07T09:40:28;10.87;;;1.93;;
30010;SDS011;16851;53.564;8.112;2022-12-07T09:45:34;10.67;;;2.10;;
30010;SDS011;16851;53.564;8.112;2022-12-07T09:50:44;16.13;;;2.30;;
30010;SDS011;16851;53.564;8.112;2022-12-07T09:55:46;10.03;;;2.73;;
30010;SDS011;16851;53.564;8.112;2022-12-07T10:00:50;12.03;;;2.27;;
30010;SDS011;16851;53.564;8.112;2022-12-07T10:05:57;9.77;;;2.10;;
30010;SDS011;16851;53.564;8.112;2022-12-07T10:11:04;11.57;;;2.47;;
30010;SDS011;16851;53.564;8.112;2022-12-07T10:21:27;10.17;;;2.00;;
30010;SDS011;16851;53.564;8.112;2022-12-07T10:26:37;12.60;;;2.30;;
30010;SDS011;16851;53.564;8.112;2022-12-07T10:31:42;12.30;;;2.30;;
30010;SDS011;16851;53.564;8.112;2022-12-07T10:36:47;14.23;;;2.83;;
30010;SDS011;16851;53.564;8.112;2022-12-07T10:41:58;7.40;;;1.73;;
30010;SDS011;16851;53.564;8.112;2022-12-07T10:58:11;5.77;;;1.10;;
30010;SDS011;16851;53.564;8.112;2022-12-07T11:03:48;8.40;;;1.53;;
30010;SDS011;16851;53.564;8.112;2022-12-07T11:09:17;10.80;;;2.00;;
30010;SDS011;16851;53.564;8.112;2022-12-07T11:15:10;9.37;;;1.73;;
30010;SDS011;16851;53.564;8.112;2022-12-07T11:21:05;10.27;;;1.50;;
30010;SDS011;16851;53.564;8.112;2022-12-07T11:25:49;10.97;;;1.60;;
30010;SDS011;16851;53.564;8.112;2022-12-07T11:31:44;7.13;;;1.80;;
30010;SDS011;16851;53.564;8.112;2022-12-07T11:36:53;11.67;;;2.20;;
30010;SDS011;16851;53.564;8.112;2022-12-07T11:42:06;13.67;;;2.03;;
30010;SDS011;16851;53.564;8.112;2022-12-07T11:47:16;10.30;;;1.73;;
30010;SDS011;16851;53.564;8.112;2022-12-07T11:52:26;8.13;;;1.40;;
30010;SDS011;16851;53.564;8.112;2022-12-07T11:57:46;4.80;;;0.93;;
30010;SDS011;16851;53.564;8.112;2022-12-07T12:08:21;5.20;;;0.90;;
30010;SDS011;16851;53.564;8.112;2022-12-07T12:25:02;6.80;;;0.93;;
30010;SDS011;16851;53.564;8.112;2022-12-07T12:30:23;6.23;;;0.93;;
30010;SDS011;16851;53.564;8.112;2022-12-07T12:35:46;7.20;;;1.13;;
30010;SDS011;16851;53.564;8.112;2022-12-07T12:46:37;3.10;;;1.10;;
30010;SDS011;16851;53.564;8.112;2022-12-07T13:18:22;15.83;;;1.80;;
30010;SDS011;16851;53.564;8.112;2022-12-07T13:28:52;5.70;;;1.47;;
30010;SDS011;16851;53.564;8.112;2022-12-07T13:39:35;8.77;;;1.70;;
30010;SDS011;16851;53.564;8.112;2022-12-07T13:44:46;7.77;;;1.77;;
30010;SDS011;16851;53.564;8.112;2022-12-07T13:49:52;11.10;;;1.90;;
30010;SDS011;16851;53.564;8.112;2022-12-07T13:54:59;9.90;;;1.80;;
30010;SDS011;16851;53.564;8.112;2022-12-07T14:00:17;7.10;;;1.60;;
30010;SDS011;16851;53.564;8.112;2022-12-07T14:05:25;13.37;;;2.00;;
30010;SDS011;16851;53.564;8.112;2022-12-07T14:10:38;12.07;;;1.90;;
30010;SDS011;16851;53.564;8.112;2022-12-07T14:15:56;10.30;;;2.03;;
30010;SDS011;16851;53.564;8.112;2022-12-07T14:26:26;7.60;;;1.50;;
30010;SDS011;16851;53.564;8.112;2022-12-07T14:31:28;8.27;;;1.30;;
30010;SDS011;16851;53.564;8.112;2022-12-07T14:36:35;5.50;;;0.90;;
30010;SDS011;16851;53.564;8.112;2022-12-07T14:41:39;5.10;;;1.53;;
30010;SDS011;16851;53.564;8.112;2022-12-07T14:46:54;5.60;;;0.93;;
30010;SDS011;16851;53.564;8.112;2022-12-07T14:52:21;6.80;;;1.73;;
30010;SDS011;16851;53.564;8.112;2022-12-07T14:57:48;4.40;;;0.80;;
30010;SDS011;16851;53.564;8.112;2022-12-07T15:02:50;6.27;;;1.03;;
30010;SDS011;16851;53.564;8.112;2022-12-07T15:07:52;4.20;;;0.83;;
30010;SDS011;16851;53.564;8.112;2022-12-07T15:13:00;4.23;;;1.10;;
30010;SDS011;16851;53.564;8.112;2022-12-07T15:18:24;8.30;;;1.50;;
30010;SDS011;16851;53.564;8.112;2022-12-07T15:23:28;6.17;;;1.10;;
30010;SDS011;16851;53.564;8.112;2022-12-07T15:28:35;2.97;;;0.97;;
30010;SDS011;16851;53.564;8.112;2022-12-07T15:33:40;5.93;;;1.13;;
30010;SDS011;16851;53.564;8.112;2022-12-07T15:38:44;2.83;;;0.90;;
30010;SDS011;16851;53.564;8.112;2022-12-07T15:44:06;7.70;;;1.90;;
30010;SDS011;16851;53.564;8.112;2022-12-07T15:49:31;4.90;;;1.20;;
30010;SDS011;16851;53.564;8.112;2022-12-07T15:54:39;5.57;;;1.40;;
30010;SDS011;16851;53.564;8.112;2022-12-07T15:59:43;5.50;;;1.30;;
30010;SDS011;16851;53.564;8.112;2022-12-07T16:04:44;2.50;;;1.00;;
30010;SDS011;16851;53.564;8.112;2022-12-07T16:09:49;5.20;;;1.10;;
30010;SDS011;16851;53.564;8.112;2022-12-07T16:14:54;3.33;;;0.90;;
30010;SDS011;16851;53.564;8.112;2022-12-07T16:19:56;6.20;;;1.27;;
30010;SDS011;16851;53.564;8.112;2022-12-07T16:25:01;5.57;;;1.50;;
30010;SDS011;16851;53.564;8.112;2022-12-07T16:30:04;3.80;;;1.50;;
30010;SDS011;16851;53.564;8.112;2022-12-07T16:35:09;3.87;;;1.40;;
30010;SDS011;16851;53.564;8.112;2022-12-07T16:40:14;4.87;;;1.47;;
30010;SDS011;16851;53.564;8.112;2022-12-07T16:45:16;5.00;;;1.90;;
30010;SDS011;16851;53.564;8.112;2022-12-07T16:50:22;4.83;;;2.43;;
30010;SDS011;16851;53.564;8.112;2022-12-07T16:55:26;4.33;;;2.27;;
30010;SDS011;16851;53.564;8.112;2022-12-07T17:00:33;5.03;;;2.67;;
30010;SDS011;16851;53.564;8.112;2022-12-07T17:05:40;6.43;;;2.93;;
30010;SDS011;16851;53.564;8.112;2022-12-07T17:10:43;5.97;;;2.90;;
30010;SDS011;16851;53.564;8.112;2022-12-07T17:15:54;5.47;;;1.80;;
30010;SDS011;16851;53.564;8.112;2022-12-07T17:21:03;7.77;;;1.93;;
30010;SDS011;16851;53.564;8.112;2022-12-07T17:26:13;5.10;;;1.70;;
30010;SDS011;16851;53.564;8.112;2022-12-07T17:31:17;2.67;;;1.30;;
30010;SDS011;16851;53.564;8.112;2022-12-07T17:36:23;14.70;;;5.47;;
30010;SDS011;16851;53.564;8.112;2022-12-07T17:41:28;5.83;;;4.07;;
30010;SDS011;16851;53.564;8.112;2022-12-07T17:46:50;5.80;;;3.40;;
30010;SDS011;16851;53.564;8.112;2022-12-07T17:51:58;4.03;;;2.00;;
30010;SDS011;16851;53.564;8.112;2022-12-07T17:57:18;5.57;;;2.80;;
30010;SDS011;16851;53.564;8.112;2022-12-07T18:02:22;8.90;;;2.20;;
30010;SDS011;16851;53.564;8.112;2022-12-07T18:07:26;6.27;;;2.07;;
30010;SDS011;16851;53.564;8.112;2022-12-07T18:12:29;6.13;;;2.40;;
30010;SDS011;16851;53.564;8.112;2022-12-07T18:17:35;4.17;;;2.20;;
30010;SDS011;16851;53.564;8.112;2022-12-07T18:22:38;7.83;;;2.60;;
30010;SDS011;16851;53.564;8.112;2022-12-07T18:27:46;6.83;;;2.50;;
30010;SDS011;16851;53.564;8.112;2022-12-07T18:32:48;6.40;;;2.30;;
30010;SDS011;16851;53.564;8.112;2022-12-07T18:37:51;6.00;;;2.53;;
30010;SDS011;16851;53.564;8.112;2022-12-07T18:42:58;8.27;;;3.07;;
30010;SDS011;16851;53.564;8.112;2022-12-07T18:47:59;10.93;;;3.40;;
30010;SDS011;16851;53.564;8.112;2022-12-07T18:53:06;7.43;;;2.10;;
30010;SDS011;16851;53.564;8.112;2022-12-07T18:58:12;4.87;;;1.90;;
30010;SDS011;16851;53.564;8.112;2022-12-07T19:03:15;4.60;;;1.90;;
30010;SDS011;16851;53.564;8.112;2022-12-07T19:08:17;5.23;;;2.73;;
30010;SDS011;16851;53.564;8.112;2022-12-07T19:13:21;9.57;;;4.07;;
30010;SDS011;16851;53.564;8.112;2022-12-07T19:18:23;8.03;;;3.53;;
30010;SDS011;16851;53.564;8.112;2022-12-07T19:23:25;10.23;;;3.87;;
30010;SDS011;16851;53.564;8.112;2022-12-07T19:28:32;6.87;;;3.70;;
30010;SDS011;16851;53.564;8.112;2022-12-07T19:33:33;6.27;;;3.07;;
30010;SDS011;16851;53.564;8.112;2022-12-07T19:38:37;9.70;;;4.27;;
30010;SDS011;16851;53.564;8.112;2022-12-07T19:43:43;8.33;;;3.47;;
30010;SDS011;16851;53.564;8.112;2022-12-07T19:48:44;12.80;;;3.03;;
30010;SDS011;16851;53.564;8.112;2022-12-07T19:53:47;7.57;;;2.40;;
30010;SDS011;16851;53.564;8.112;2022-12-07T19:58:50;6.17;;;2.63;;
30010;SDS011;16851;53.564;8.112;2022-12-07T20:03:54;9.07;;;2.90;;
30010;SDS011;16851;53.564;8.112;2022-12-07T20:08:58;9.77;;;3.70;;
30010;SDS011;16851;53.564;8.112;2022-12-07T20:14:06;11.03;;;5.13;;
30010;SDS011;16851;53.564;8.112;2022-12-07T20:19:12;13.57;;;6.43;;
30010;SDS011;16851;53.564;8.112;2022-12-07T20:24:20;11.63;;;6.70;;
30010;SDS011;16851;53.564;8.112;2022-12-07T20:29:28;10.60;;;7.40;;
30010;SDS011;16851;53.564;8.112;2022-12-07T20:34:30;14.53;;;8.17;;
30010;SDS011;16851;53.564;8.112;2022-12-07T20:39:34;16.70;;;8.37;;
30010;SDS011;16851;53.564;8.112;2022-12-07T20:44:38;11.63;;;7.90;;
30010;SDS011;16851;53.564;8.112;2022-12-07T20:49:46;10.93;;;8.63;;
30010;SDS011;16851;53.564;8.112;2022-12-07T20:54:49;9.93;;;7.47;;
30010;SDS011;16851;53.564;8.112;2022-12-07T20:59:53;14.67;;;7.60;;
30010;SDS011;16851;53.564;8.112;2022-12-07T21:05:01;10.00;;;7.03;;
30010;SDS011;16851;53.564;8.112;2022-12-07T21:10:04;9.20;;;5.50;;
30010;SDS011;16851;53.564;8.112;2022-12-07T21:15:09;11.50;;;8.40;;
30010;SDS011;16851;53.564;8.112;2022-12-07T21:20:15;13.43;;;5.67;;
30010;SDS011;16851;53.564;8.112;2022-12-07T21:25:18;6.80;;;5.90;;
30010;SDS011;16851;53.564;8.112;2022-12-07T21:30:20;9.87;;;6.17;;
30010;SDS011;16851;53.564;8.112;2022-12-07T21:35:24;9.43;;;6.57;;
30010;SDS011;16851;53.564;8.112;2022-12-07T21:40:26;6.60;;;5.00;;
30010;SDS011;16851;53.564;8.112;2022-12-07T21:45:28;7.50;;;4.40;;
30010;SDS011;16851;53.564;8.112;2022-12-07T21:50:34;6.30;;;3.83;;
30010;SDS011;16851;53.564;8.112;2022-12-07T21:55:43;6.80;;;3.53;;
30010;SDS011;16851;53.564;8.112;2022-12-07T22:00:45;5.23;;;3.80;;
30010;SDS011;16851;53.564;8.112;2022-12-07T22:05:48;7.80;;;3.30;;
30010;SDS011;16851;53.564;8.112;2022-12-07T22:10:52;5.17;;;3.40;;
30010;SDS011;16851;53.564;8.112;2022-12-07T22:15:54;9.53;;;3.77;;
30010;SDS011;16851;53.564;8.112;2022-12-07T22:21:00;7.50;;;3.60;;
30010;SDS011;16851;53.564;8.112;2022-12-07T22:26:05;7.73;;;4.50;;
30010;SDS011;16851;53.564;8.112;2022-12-07T22:31:12;16.20;;;4.83;;
30010;SDS011;16851;53.564;8.112;2022-12-07T22:36:19;9.90;;;4.63;;
30010;SDS011;16851;53.564;8.112;2022-12-07T22:41:25;7.47;;;4.77;;
30010;SDS011;16851;53.564;8.112;2022-12-07T22:46:34;10.00;;;5.47;;
30010;SDS011;16851;53.564;8.112;2022-12-07T22:51:39;9.97;;;5.80;;
30010;SDS011;16851;53.564;8.112;2022-12-07T22:56:44;10.03;;;5.73;;
30010;SDS011;16851;53.564;8.112;2022-12-07T23:01:46;14.80;;;6.87;;
30010;SDS011;16851;53.564;8.112;2022-12-07T23:06:48;7.93;;;5.23;;
30010;SDS011;16851;53.564;8.112;2022-12-07T23:11:50;12.90;;;6.33;;
30010;SDS011;16851;53.564;8.112;2022-12-07T23:17:13;16.27;;;6.80;;
30010;SDS011;16851;53.564;8.112;2022-12-07T23:22:14;13.47;;;6.50;;
30010;SDS011;16851;53.564;8.112;2022-12-07T23:27:16;8.50;;;4.60;;
30010;SDS011;16851;53.564;8.112;2022-12-07T23:32:22;8.20;;;4.40;;
30010;SDS011;16851;53.564;8.112;2022-12-07T23:37:24;11.20;;;4.77;;
30010;SDS011;16851;53.564;8.112;2022-12-07T23:42:28;8.77;;;4.83;;
30010;SDS011;16851;53.564;8.112;2022-12-07T23:47:33;6.03;;;4.03;;
30010;SDS011;16851;53.564;8.112;2022-12-07T23:52:37;7.70;;;4.00;;
30010;SDS011;16851;53.564;8.112;2022-12-07T23:57:41;8.67;;;3.30;;
